Jamaica, NY (11436)

8:23 AM EDT on October 23, 2014 (GMT -0400)
Floral Park, The Original 11001 Wx Site | Change Station
CLOSE
Current Station
Personal Weather Station
Location: Floral Park, NY
Elevation: 103 ft
Nearby Weather Stations
Active Advisory: Coastal Flood Statement Active Notice: Record Report

Elev 103 ft 40.73 °N, 73.71 °W | Updated 5 seconds ago

Light Rain
Light Rain
48.8 °F
Feels Like 49 °F
N
3.0
Wind Variable Wind from NE
Gusts 15.0 mph

Today
High -- | Low -- °F
--% Chance of Precip.
Yesterday
High -- | Low -- °F
Precip. -- in
7:15 AM 6:03 PM
Waning Crescent, 0% visible
Pressure 29.68 in
Visibility 7.0 miles
Clouds Few 1200 ft
Mostly Cloudy 1700 ft
Overcast 8500 ft
Windchill 49 °F
Dew Point 48 °F
Humidity 97%
Rainfall 0.12 in
Snow Depth Not available.
UV 0 out of 12
Pollen .30 out of 12
Air Quality Not available.
Flu Activity Sporadic
METAR KJFK 231151Z 34019G26KT 7SM -RA FEW012 BKN017 OVC085 11/08 A2968 RMK AO2 PK WND 32026/1149 RAB1057 SLP051 P0000 60009 70067 T01060083 10122 20106 56004 $

More Conditions Fewer Conditions

Pressure 29.68 in
Visibility 7.0 miles
Clouds Few 1200 ft
Mostly Cloudy 1700 ft
Overcast 8500 ft
Windchill 49 °F
Dew Point 48 °F
Humidity 97%
Rainfall 0.12 in
Snow Depth Not available.
UV 0 out of 12
Pollen .30 out of 12
Air Quality Not available.
Flu Activity Sporadic
METAR KJFK 231151Z 34019G26KT 7SM -RA FEW012 BKN017 OVC085 11/08 A2968 RMK AO2 PK WND 32026/1149 RAB1057 SLP051 P0000 60009 70067 T01060083 10122 20106 56004 $

More Conditions Fewer Conditions

10-Day Weather Forecast

Almanac

Astronomy

Oct. 23, 2014 Rise Set
Actual Time 7:15 AM EDT 6:03 PM EDT
Civil Twilight 6:47 AM EDT 6:31 PM EDT
Nautical Twilight 6:15 AM EDT 7:03 PM EDT
Astronomical Twilight 5:43 AM EDT 7:34 PM EDT
Moon 6:52 AM EDT 6:03 PM EDT
Length of Visible Light 11h 43m
Length of Day
10h 48m
Tomorrow will be 2m 30s shorter.
Waning Crescent, 0% of the Moon is Illuminated
Today
Waning Crescent
Oct 23
New
Oct 30
First Quarter
Nov 6
Full
Nov 14
Last Quarter

Today's Extremes

State Highs State Lows

Community

WunderPhotos

Upload Photos

1,764,211 photos uploaded!

WunderBlogs® & News

Nearby

Snow Depth

Station Depth Elevation
No new snow has been reported.

Earthquake Activity

City Distance Mag. Time & Date
No recent earthquake activity has been reported nearby.
Minimum magnitude displayed is 2.5.

Coastal Water Temperatures

Place Temperature
Sandy Hook, NJ 60.1 °F
The Battery, NY 62.1 °F

Nearby Weather Stations